createdAt,value
2019-03-28T00:01:58.801Z,27.10
2019-03-28T00:04:29.124Z,28.20
2019-03-28T00:06:59.410Z,27.15
2019-03-28T00:09:29.771Z,27.67
2019-03-28T00:12:00.021Z,28.60
2019-03-28T00:14:30.426Z,30.02
2019-03-28T00:17:00.859Z,29.60
2019-03-28T00:19:31.189Z,29.98
2019-03-28T00:22:01.467Z,28.23
2019-03-28T00:24:39.678Z,29.32
2019-03-28T00:27:10.004Z,29.15
2019-03-28T00:29:40.304Z,29.02
2019-03-28T00:32:10.556Z,28.42
2019-03-28T00:34:40.992Z,30.55
2019-03-28T00:37:11.476Z,28.83
2019-03-28T00:39:41.932Z,29.85
2019-03-28T00:42:12.411Z,28.87
2019-03-28T00:44:42.694Z,29.32
2019-03-28T00:47:12.968Z,28.15
2019-03-28T00:49:43.380Z,29.70
2019-03-28T00:52:14.784Z,28.98
2019-03-28T00:54:45.079Z,30.23
2019-03-28T00:57:15.523Z,28.70
2019-03-28T00:59:45.929Z,29.18
2019-03-28T01:02:16.209Z,28.62
2019-03-28T01:04:47.621Z,30.12
2019-03-28T01:07:18.138Z,29.48
2019-03-28T01:09:55.301Z,29.80
2019-03-28T01:12:25.599Z,28.60
2019-03-28T01:14:57.146Z,28.87
2019-03-28T01:17:27.402Z,28.55
2019-03-28T01:19:57.717Z,29.00
2019-03-28T01:22:28.718Z,29.27
2019-03-28T01:24:59.059Z,29.12
2019-03-28T01:27:29.314Z,29.92
2019-03-28T01:29:59.812Z,29.35
2019-03-28T01:32:30.065Z,28.67
2019-03-28T01:35:00.528Z,29.18
2019-03-28T01:37:30.920Z,29.77
2019-03-28T01:40:01.184Z,28.42
2019-03-28T01:42:31.449Z,28.85
2019-03-28T01:45:01.973Z,29.67
2019-03-28T01:47:32.228Z,29.07
2019-03-28T01:50:02.967Z,29.60
2019-03-28T01:52:39.336Z,28.38
2019-03-28T01:55:19.246Z,30.43
2019-03-28T01:57:59.530Z,27.85
2019-03-28T02:00:32.781Z,27.95
2019-03-28T02:03:04.585Z,29.20
2019-03-28T02:05:34.856Z,29.90
2019-03-28T02:08:05.112Z,29.07
2019-03-28T02:10:35.448Z,29.98
2019-03-28T02:13:05.685Z,30.65
2019-03-28T02:15:37.747Z,29.65
2019-03-28T02:18:08.173Z,30.65
2019-03-28T02:20:38.467Z,29.48
2019-03-28T02:23:08.777Z,30.17
2019-03-28T02:25:40.397Z,29.72
2019-03-28T02:28:16.499Z,30.10
2019-03-28T02:30:46.840Z,28.65
2019-03-28T02:33:18.097Z,30.43
2019-03-28T02:35:49.124Z,30.17
2019-03-28T02:38:20.410Z,30.50
2019-03-28T02:40:57.742Z,30.05
2019-03-28T02:43:29.012Z,28.73
2019-03-28T02:46:12.768Z,29.05
2019-03-28T02:48:43.071Z,29.72
2019-03-28T02:51:13.436Z,29.67
2019-03-28T02:53:45.669Z,29.35
2019-03-28T02:56:23.638Z,30.27
2019-03-28T02:58:54.885Z,30.02
2019-03-28T03:01:25.175Z,30.08
2019-03-28T03:03:56.873Z,29.20
2019-03-28T03:06:27.408Z,30.10
2019-03-28T03:08:59.702Z,30.08
2019-03-28T03:11:30.123Z,29.70
2019-03-28T03:14:00.558Z,30.30
2019-03-28T03:16:30.911Z,31.68
2019-03-28T03:19:01.200Z,31.35
2019-03-28T03:21:31.590Z,32.15
2019-03-28T03:24:01.899Z,31.17
2019-03-28T03:26:32.439Z,33.50
2019-03-28T03:29:02.886Z,32.55
2019-03-28T03:31:33.244Z,32.33
2019-03-28T03:34:13.947Z,33.00
2019-03-28T03:36:44.267Z,34.60
2019-03-28T03:39:14.537Z,34.78
2019-03-28T03:41:45.090Z,35.33
2019-03-28T03:44:21.551Z,36.75
2019-03-28T03:46:53.734Z,35.52
2019-03-28T03:49:24.253Z,36.28
2019-03-28T03:51:54.614Z,35.85
2019-03-28T03:54:24.925Z,36.30
2019-03-28T03:56:55.351Z,37.70
2019-03-28T03:59:37.782Z,36.03
2019-03-28T04:02:23.059Z,36.88
2019-03-28T04:04:59.518Z,39.42
2019-03-28T04:07:33.717Z,38.42
2019-03-28T04:10:19.505Z,39.08
2019-03-28T04:12:57.010Z,40.63
2019-03-28T04:15:32.197Z,40.55
2019-03-28T04:18:04.200Z,42.67
2019-03-28T04:20:40.193Z,42.43
2019-03-28T04:23:10.803Z,44.10
2019-03-28T04:25:41.189Z,45.75
2019-03-28T04:28:12.620Z,43.87
2019-03-28T04:30:43.325Z,43.63
2019-03-28T04:33:13.756Z,45.83
2019-03-28T04:35:44.146Z,44.55
2019-03-28T04:38:19.433Z,45.12
2019-03-28T04:40:48.500Z,44.27
2019-03-28T04:43:18.925Z,44.75
2019-03-28T04:45:49.316Z,44.60
2019-03-28T04:48:20.453Z,45.75
2019-03-28T04:50:51.828Z,46.18
2019-03-28T04:53:22.256Z,45.12
2019-03-28T04:55:52.678Z,48.02
2019-03-28T04:58:24.683Z,43.70
2019-03-28T05:00:55.081Z,41.42
2019-03-28T05:03:25.476Z,42.70
2019-03-28T05:05:55.847Z,44.88
2019-03-28T05:08:26.425Z,41.58
2019-03-28T05:10:56.818Z,42.93
2019-03-28T05:13:27.223Z,44.58
2019-03-28T05:16:17.506Z,41.88
2019-03-28T05:18:47.973Z,42.33
2019-03-28T05:21:26.251Z,41.45
2019-03-28T05:23:56.851Z,41.20
2019-03-28T05:26:27.369Z,39.67
2019-03-28T05:29:00.539Z,40.67
2019-03-28T05:31:30.996Z,41.45
2019-03-28T05:34:15.862Z,39.60
2019-03-28T05:36:43.148Z,40.55
2019-03-28T05:39:13.530Z,40.90
2019-03-28T05:41:47.142Z,39.53
2019-03-28T05:44:19.062Z,38.80
2019-03-28T05:46:49.471Z,40.48
2019-03-28T05:49:19.863Z,41.45
2019-03-28T05:51:50.430Z,41.15
2019-03-28T05:54:20.704Z,42.95
2019-03-28T05:56:58.652Z,43.28
2019-03-28T05:59:29.012Z,42.38
2019-03-28T06:01:59.333Z,40.35
2019-03-28T06:04:29.651Z,41.25
2019-03-28T06:07:00.251Z,41.28
2019-03-28T06:09:30.502Z,42.80
2019-03-28T06:12:01.152Z,42.50
2019-03-28T06:14:31.541Z,42.83
2019-03-28T06:17:03.655Z,42.23
2019-03-28T06:19:33.962Z,42.38
2019-03-28T06:22:04.240Z,43.17
2019-03-28T06:24:34.539Z,42.75
2019-03-28T06:27:05.808Z,40.78
2019-03-28T06:29:36.116Z,43.00
2019-03-28T06:32:06.802Z,40.12
2019-03-28T06:34:37.071Z,38.98
2019-03-28T06:37:07.746Z,41.68
2019-03-28T06:39:38.028Z,40.70
2019-03-28T06:42:08.294Z,41.05
2019-03-28T06:44:38.616Z,44.18
2019-03-28T06:47:09.330Z,40.28
2019-03-28T06:49:39.640Z,40.48
2019-03-28T06:52:09.932Z,42.10
2019-03-28T06:54:40.439Z,37.60
2019-03-28T06:57:10.692Z,40.50
2019-03-28T06:59:42.776Z,37.48
2019-03-28T07:02:12.962Z,39.67
2019-03-28T07:04:43.281Z,35.45
2019-03-28T07:07:13.471Z,33.67
2019-03-28T07:09:44.299Z,37.00
2019-03-28T07:12:14.746Z,35.88
2019-03-28T07:14:48.425Z,33.23
2019-03-28T07:19:48.045Z,33.15
2019-03-28T07:22:18.342Z,29.65
2019-03-28T07:24:48.671Z,32.15
2019-03-28T07:27:18.959Z,30.97
2019-03-28T07:29:51.237Z,28.47
2019-03-28T07:32:21.221Z,28.17
2019-03-28T07:34:51.563Z,27.98
2019-03-28T07:37:22.649Z,27.07
2019-03-28T07:39:52.859Z,28.83
2019-03-28T07:42:23.197Z,27.75
2019-03-28T07:44:54.239Z,26.85
2019-03-28T07:47:24.424Z,26.23
2019-03-28T07:49:55.767Z,24.72
2019-03-28T07:52:26.024Z,25.00
2019-03-28T07:54:56.470Z,25.00
2019-03-28T07:57:26.743Z,24.35
2019-03-28T08:00:03.971Z,25.62
2019-03-28T08:02:28.996Z,24.98
2019-03-28T08:05:01.802Z,23.07
2019-03-28T08:07:44.300Z,21.68
2019-03-28T08:10:06.456Z,20.72
2019-03-28T08:12:36.712Z,20.20
2019-03-28T08:15:09.895Z,19.62
2019-03-28T08:17:40.196Z,18.35
2019-03-28T08:20:13.501Z,19.62
2019-03-28T08:22:43.732Z,17.60
2019-03-28T08:25:14.374Z,20.30
2019-03-28T08:27:44.857Z,19.50
2019-03-28T08:30:18.877Z,17.57
2019-03-28T08:32:47.547Z,15.98
2019-03-28T08:35:17.920Z,15.15
2019-03-28T08:37:48.330Z,15.50
2019-03-28T08:40:33.750Z,13.93
2019-03-28T08:43:04.149Z,12.85
2019-03-28T08:45:34.693Z,13.22
2019-03-28T08:48:05.505Z,12.75
2019-03-28T08:50:35.734Z,13.75
2019-03-28T08:53:06.013Z,14.78
2019-03-28T08:55:37.371Z,10.80
2019-03-28T08:58:07.672Z,6.95
2019-03-28T09:00:50.956Z,7.50
2019-03-28T09:03:09.765Z,7.20
2019-03-28T09:05:39.985Z,6.10
2019-03-28T09:08:10.277Z,5.58
2019-03-28T09:10:42.456Z,5.72
2019-03-28T09:13:13.286Z,5.65
2019-03-28T09:15:44.537Z,5.40
2019-03-28T09:18:14.880Z,5.60
2019-03-28T09:20:45.151Z,5.97
2019-03-28T09:23:15.414Z,5.90
2019-03-28T09:25:46.735Z,5.00
2019-03-28T09:28:16.908Z,4.75
2019-03-28T09:30:49.209Z,6.22
2019-03-28T09:33:19.053Z,5.03
2019-03-28T09:35:49.338Z,4.25
2019-03-28T09:38:19.983Z,4.17
2019-03-28T09:40:50.260Z,5.33
2019-03-28T09:43:20.449Z,5.20
2019-03-28T09:45:52.673Z,5.78
2019-03-28T09:48:23.045Z,5.87
2019-03-28T09:50:53.325Z,5.55
2019-03-28T09:53:23.606Z,5.58
2019-03-28T09:55:53.855Z,6.25
2019-03-28T09:58:24.166Z,5.67
2019-03-28T10:01:02.688Z,5.65
2019-03-28T10:03:26.673Z,5.80
2019-03-28T10:05:56.845Z,5.85
2019-03-28T10:08:27.079Z,6.03
2019-03-28T10:10:57.300Z,5.28
2019-03-28T10:13:27.583Z,4.92
2019-03-28T10:15:58.737Z,5.78
2019-03-28T10:18:30.256Z,5.33
2019-03-28T10:21:00.519Z,4.90
2019-03-28T10:23:30.832Z,5.40
2019-03-28T10:26:01.126Z,5.83
2019-03-28T10:28:31.336Z,5.50
2019-03-28T10:31:10.829Z,5.20
2019-03-28T10:33:33.588Z,5.45
2019-03-28T10:36:03.861Z,5.15
2019-03-28T10:38:34.088Z,5.22
2019-03-28T10:41:04.363Z,5.55
2019-03-28T10:43:37.176Z,5.95
2019-03-28T10:46:07.465Z,5.67
2019-03-28T10:48:37.703Z,5.95
2019-03-28T10:51:07.968Z,6.10
2019-03-28T10:53:38.258Z,6.20
2019-03-28T10:56:21.037Z,6.40
2019-03-28T10:58:40.798Z,6.30
2019-03-28T11:01:11.067Z,6.10
2019-03-28T11:03:41.465Z,6.10
2019-03-28T11:06:11.734Z,6.15
2019-03-28T11:08:42.663Z,6.30
2019-03-28T11:11:13.028Z,6.80
2019-03-28T11:13:43.318Z,6.83
2019-03-28T11:16:15.246Z,7.10
2019-03-28T11:18:45.709Z,7.53
2019-03-28T11:21:15.903Z,7.87
2019-03-28T11:23:46.139Z,7.05
2019-03-28T11:26:16.410Z,7.78
2019-03-28T11:28:47.309Z,8.18
2019-03-28T11:31:17.719Z,7.78
2019-03-28T11:33:48.186Z,8.15
2019-03-28T11:36:18.395Z,7.40
2019-03-28T11:38:48.672Z,7.05
2019-03-28T11:41:18.928Z,7.90
2019-03-28T11:43:49.231Z,7.62
2019-03-28T11:46:19.492Z,9.08
2019-03-28T11:48:49.795Z,8.50
2019-03-28T11:51:21.422Z,8.35
2019-03-28T11:53:51.742Z,9.35
2019-03-28T11:56:22.015Z,9.00
2019-03-28T11:58:52.590Z,9.50
2019-03-28T12:01:22.861Z,8.80
2019-03-28T12:03:53.091Z,9.55
2019-03-28T12:06:23.364Z,9.43
2019-03-28T12:08:55.914Z,8.90
2019-03-28T12:11:25.723Z,8.48
2019-03-28T12:13:56.025Z,8.83
2019-03-28T12:16:26.323Z,8.08
2019-03-28T12:18:56.624Z,7.53
2019-03-28T12:21:26.841Z,7.92
2019-03-28T12:23:57.394Z,8.10
2019-03-28T12:26:27.626Z,7.90
2019-03-28T12:29:00.788Z,8.20
2019-03-28T12:31:33.187Z,8.48
2019-03-28T12:34:02.925Z,6.50
2019-03-28T12:36:35.027Z,7.70
2019-03-28T12:39:06.667Z,6.90
2019-03-28T12:41:37.268Z,6.12
2019-03-28T12:44:07.521Z,5.62
2019-03-28T12:46:37.794Z,5.20
2019-03-28T12:49:08.012Z,3.85
2019-03-28T12:51:38.202Z,4.47
2019-03-28T12:54:08.536Z,4.40
2019-03-28T12:56:38.878Z,4.75
2019-03-28T12:59:09.189Z,4.95
2019-03-28T13:01:39.378Z,7.00
2019-03-28T13:04:09.674Z,8.48
2019-03-28T13:06:39.958Z,8.80
2019-03-28T13:09:10.966Z,7.78
2019-03-28T13:11:41.114Z,8.03
2019-03-28T13:14:11.512Z,7.90
2019-03-28T13:16:41.806Z,7.03
2019-03-28T13:19:12.070Z,7.37
2019-03-28T13:21:56.512Z,8.23
2019-03-28T13:24:27.368Z,8.68
2019-03-28T13:26:57.662Z,7.47
2019-03-28T13:29:27.976Z,8.38
2019-03-28T13:31:58.248Z,8.25
2019-03-28T13:34:28.529Z,8.55
2019-03-28T13:36:59.097Z,8.60
2019-03-28T13:39:29.365Z,8.28
2019-03-28T13:41:59.746Z,8.60
2019-03-28T13:44:30.414Z,8.95
2019-03-28T13:47:00.646Z,8.85
2019-03-28T13:49:30.942Z,12.33
2019-03-28T13:52:01.137Z,21.82
2019-03-28T13:54:31.372Z,11.68
2019-03-28T13:57:01.656Z,8.63
2019-03-28T13:59:34.919Z,7.90
2019-03-28T14:02:06.727Z,7.72
2019-03-28T14:04:35.747Z,8.05
2019-03-28T14:07:07.045Z,7.42
2019-03-28T14:09:37.387Z,7.35
2019-03-28T14:12:07.630Z,7.97
2019-03-28T14:14:44.006Z,9.70
2019-03-28T14:17:15.064Z,8.03
2019-03-28T14:19:45.513Z,9.00
2019-03-28T14:22:18.215Z,8.15
2019-03-28T14:24:47.788Z,8.80
2019-03-28T14:27:18.084Z,8.53
2019-03-28T14:29:48.456Z,8.65
2019-03-28T14:32:19.157Z,9.00
2019-03-28T14:34:49.458Z,8.88
2019-03-28T14:37:19.737Z,9.05
2019-03-28T14:39:50.537Z,9.18
2019-03-28T14:42:20.758Z,9.08
2019-03-28T14:44:51.110Z,9.10
2019-03-28T14:47:21.411Z,9.53
2019-03-28T14:49:51.906Z,12.05
2019-03-28T14:52:22.229Z,12.13
2019-03-28T14:54:52.602Z,11.43
2019-03-28T14:57:23.156Z,9.70
2019-03-28T14:59:55.163Z,10.15
2019-03-28T15:02:25.468Z,9.60
2019-03-28T15:04:55.748Z,10.40
2019-03-28T15:07:26.000Z,9.13
2019-03-28T15:09:56.353Z,8.35
2019-03-28T15:12:27.548Z,9.20
2019-03-28T15:15:02.689Z,9.48
2019-03-28T15:17:32.967Z,8.70
2019-03-28T15:20:03.524Z,9.65
2019-03-28T15:22:33.872Z,8.93
2019-03-28T15:25:05.144Z,9.48
2019-03-28T15:27:35.404Z,9.25
2019-03-28T15:30:10.064Z,10.32
2019-03-28T15:32:40.347Z,10.28
2019-03-28T15:35:10.693Z,10.08
2019-03-28T15:37:40.968Z,10.40
2019-03-28T15:40:11.823Z,9.85
2019-03-28T15:42:42.581Z,10.03
2019-03-28T15:45:12.924Z,10.85
2019-03-28T15:47:43.725Z,10.70
2019-03-28T15:50:14.516Z,9.35
2019-03-28T15:52:44.770Z,9.78
2019-03-28T15:55:15.145Z,9.48
2019-03-28T15:57:45.405Z,10.03
2019-03-28T16:00:16.283Z,9.68
2019-03-28T16:02:46.567Z,10.32
2019-03-28T16:05:17.015Z,8.75
2019-03-28T16:07:47.406Z,8.33
2019-03-28T16:10:18.755Z,9.05
2019-03-28T16:12:48.938Z,8.65
2019-03-28T16:15:19.321Z,8.60
2019-03-28T16:17:49.629Z,9.53
2019-03-28T16:20:20.015Z,9.73
2019-03-28T16:22:50.576Z,9.65
2019-03-28T16:25:21.649Z,9.18
2019-03-28T16:27:51.863Z,9.15
2019-03-28T16:30:37.182Z,9.65
2019-03-28T16:33:08.416Z,8.93
2019-03-28T16:35:38.848Z,9.25
2019-03-28T16:38:09.150Z,9.55
2019-03-28T16:40:39.447Z,9.00
2019-03-28T16:43:09.718Z,8.55
2019-03-28T16:45:39.902Z,8.95
2019-03-28T16:48:10.218Z,8.90
2019-03-28T16:50:41.476Z,9.55
2019-03-28T16:53:11.725Z,9.13
2019-03-28T16:55:41.983Z,8.83
2019-03-28T16:58:12.296Z,9.58
2019-03-28T17:00:42.563Z,9.13
2019-03-28T17:03:12.853Z,9.68
2019-03-28T17:05:43.152Z,9.70
2019-03-28T17:08:14.095Z,10.00
2019-03-28T17:10:49.114Z,9.65
2019-03-28T17:13:19.335Z,9.73
2019-03-28T17:15:51.391Z,9.60
2019-03-28T17:18:21.668Z,10.40
2019-03-28T17:20:51.933Z,8.83
2019-03-28T17:23:22.664Z,9.15
2019-03-28T17:25:52.931Z,10.48
2019-03-28T17:28:23.281Z,9.98
2019-03-28T17:30:53.539Z,9.13
2019-03-28T17:33:23.848Z,10.23
2019-03-28T17:35:54.127Z,10.18
2019-03-28T17:38:24.462Z,10.30
2019-03-28T17:40:55.825Z,12.43
2019-03-28T17:43:26.121Z,13.25
2019-03-28T17:45:57.481Z,13.30
2019-03-28T17:48:28.602Z,12.40
2019-03-28T17:50:59.516Z,14.43
2019-03-28T17:53:31.253Z,16.45
2019-03-28T17:56:01.511Z,15.48
2019-03-28T17:58:31.824Z,15.40
2019-03-28T18:01:02.225Z,15.70
2019-03-28T18:03:32.533Z,16.30
2019-03-28T18:06:02.718Z,19.15
2019-03-28T18:08:33.081Z,21.15
2019-03-28T18:11:03.784Z,19.85
2019-03-28T18:13:34.114Z,20.65
2019-03-28T18:16:07.836Z,20.12
2019-03-28T18:21:07.385Z,19.75
2019-03-28T18:23:37.873Z,19.77
2019-03-28T18:26:08.181Z,18.05
2019-03-28T18:28:38.464Z,17.42
2019-03-28T18:31:10.292Z,17.50
2019-03-28T18:33:42.847Z,16.87
2019-03-28T18:36:13.001Z,18.70
2019-03-28T18:38:52.475Z,18.77
2019-03-28T18:41:26.122Z,20.10
2019-03-28T18:43:56.408Z,22.55
2019-03-28T18:46:26.752Z,26.68
2019-03-28T18:48:57.738Z,30.77
2019-03-28T18:51:28.099Z,26.45
2019-03-28T18:53:58.439Z,25.62
2019-03-28T18:56:30.570Z,26.35
2019-03-28T18:59:02.088Z,36.28
2019-03-28T19:01:35.289Z,40.63
2019-03-28T19:04:14.978Z,40.95
2019-03-28T19:06:45.276Z,36.23
2019-03-28T19:09:15.630Z,31.95
2019-03-28T19:11:45.895Z,37.73
2019-03-28T19:14:16.258Z,35.70
2019-03-28T19:16:48.353Z,35.88
2019-03-28T19:19:20.063Z,35.65
2019-03-28T19:21:50.297Z,48.20
2019-03-28T19:24:20.506Z,44.90
2019-03-28T19:26:50.922Z,47.83
2019-03-28T19:29:21.188Z,50.50
2019-03-28T19:31:51.495Z,56.37
2019-03-28T19:34:22.658Z,57.55
2019-03-28T19:36:53.702Z,64.03
2019-03-28T19:39:34.010Z,62.20
2019-03-28T19:42:04.896Z,59.70
2019-03-28T19:44:36.979Z,56.68
2019-03-28T19:47:07.283Z,53.25
2019-03-28T19:49:37.581Z,56.58
2019-03-28T19:52:07.906Z,66.92
2019-03-28T19:54:38.159Z,66.60
2019-03-28T19:57:08.481Z,70.20
2019-03-28T19:59:39.759Z,62.10
2019-03-28T20:02:10.086Z,57.17
2019-03-28T20:04:40.355Z,57.17
2019-03-28T20:07:20.859Z,50.90
2019-03-28T20:09:42.993Z,47.90
2019-03-28T20:12:13.212Z,48.20
2019-03-28T20:14:49.762Z,44.63
2019-03-28T20:17:20.072Z,46.68
2019-03-28T20:19:50.342Z,48.63
2019-03-28T20:22:20.641Z,45.75
2019-03-28T20:24:53.089Z,43.30
2019-03-28T20:27:23.935Z,45.55
2019-03-28T20:29:54.181Z,44.42
2019-03-28T20:32:24.645Z,46.75
2019-03-28T20:34:56.012Z,46.55
2019-03-28T20:37:26.487Z,48.90
2019-03-28T20:39:56.686Z,48.38
2019-03-28T20:42:26.994Z,46.77
2019-03-28T20:44:57.209Z,47.25
2019-03-28T20:47:27.513Z,45.58
2019-03-28T20:49:57.955Z,45.38
2019-03-28T20:52:28.262Z,45.85
2019-03-28T20:54:59.576Z,46.05
2019-03-28T20:57:30.407Z,50.80
2019-03-28T21:00:00.608Z,53.85
2019-03-28T21:02:30.955Z,55.65
2019-03-28T21:05:01.317Z,59.18
2019-03-28T21:07:31.736Z,58.87
2019-03-28T21:10:01.983Z,59.25
2019-03-28T21:12:32.565Z,56.42
2019-03-28T21:15:02.823Z,59.13
2019-03-28T21:17:34.091Z,55.52
2019-03-28T21:20:06.891Z,56.37
2019-03-28T21:22:37.130Z,55.75
2019-03-28T21:25:07.696Z,54.08
2019-03-28T21:27:38.116Z,58.00
2019-03-28T21:30:08.926Z,55.90
2019-03-28T21:32:39.216Z,58.85
2019-03-28T21:35:09.693Z,58.10
2019-03-28T21:37:39.941Z,58.13
2019-03-28T21:40:10.836Z,57.45
2019-03-28T21:42:41.145Z,54.93
2019-03-28T21:45:11.519Z,55.83
2019-03-28T21:47:41.824Z,52.88
2019-03-28T21:50:12.603Z,56.15
2019-03-28T21:52:42.927Z,53.05
2019-03-28T21:55:13.298Z,57.17
2019-03-28T21:57:44.182Z,55.80
2019-03-28T22:00:14.847Z,52.55
2019-03-28T22:02:45.591Z,51.85
2019-03-28T22:05:16.231Z,54.03
2019-03-28T22:07:46.555Z,53.25
2019-03-28T22:10:17.148Z,53.15
2019-03-28T22:12:47.737Z,51.05
2019-03-28T22:15:18.061Z,52.95
2019-03-28T22:17:48.631Z,53.23
2019-03-28T22:20:18.951Z,54.18
2019-03-28T22:22:49.250Z,54.25
2019-03-28T22:25:19.977Z,53.48
2019-03-28T22:27:50.537Z,52.13
2019-03-28T22:30:20.873Z,51.70
2019-03-28T22:32:51.306Z,55.43
2019-03-28T22:35:23.057Z,55.30
2019-03-28T22:37:54.748Z,55.05
2019-03-28T22:40:25.500Z,63.28
2019-03-28T22:42:55.796Z,63.13
2019-03-28T22:45:26.313Z,61.60
2019-03-28T22:48:09.741Z,61.02
2019-03-28T22:50:39.250Z,59.27
2019-03-28T22:53:13.745Z,58.50
2019-03-28T22:56:00.493Z,61.60
2019-03-28T23:01:18.347Z,54.10
2019-03-28T23:03:50.151Z,56.15
2019-03-28T23:06:20.432Z,54.15
2019-03-28T23:08:50.932Z,53.05
2019-03-28T23:11:21.212Z,53.48
2019-03-28T23:13:52.833Z,55.73
2019-03-28T23:16:23.606Z,57.55
2019-03-28T23:18:53.937Z,59.65
2019-03-28T23:21:24.205Z,61.37
2019-03-28T23:23:54.527Z,55.92
2019-03-28T23:26:26.675Z,57.78
2019-03-28T23:28:57.041Z,56.65
2019-03-28T23:31:43.720Z,55.63
2019-03-28T23:34:14.063Z,57.33
2019-03-28T23:36:44.463Z,57.90
2019-03-28T23:39:17.787Z,52.48
2019-03-28T23:41:48.175Z,55.08
2019-03-28T23:44:18.492Z,54.80
2019-03-28T23:46:48.908Z,50.55
2019-03-28T23:49:19.240Z,50.05
2019-03-28T23:51:50.264Z,54.50
2019-03-28T23:54:34.124Z,52.13
2019-03-28T23:57:07.089Z,50.40
2019-03-28T23:59:37.393Z,52.43
